PWSweather.com
Personal Weather Stations
Station Observations
METEOTGN
Tarragona (settiement Sant Pere Y Sant Pau), TarragonaES 43007

Tarragona (settiement Sant Pere Y Sant Pau)TarragonaES 43007

Lat: 41.13913, Lon: 1.25559

Elevation: 321

Station Type: Davis Vantage Pro2 Plus

Latest ConditionsUpdated 11:10:03 PM GMT+01:01 Friday, Oct 18, 2019
Currently Today's Max Today's Min Today's Average
Temperature 67.6°F19.8°C 73.6°F23.1°C 62.6°F17.0°C 68.0°F20.0°C
Dew Point 57.5°F14.2°C 62.9°F17.2°C 50.7°F10.4°C 55.3°F12.9°C
Winds Calm Calm 8.1 mph -13.0 kmh - - 2.1 mph 3.4 kmh
Wind Gusts -- 10.4 mph16.7 kmh - -
Humidity 70% 77% 54% 64%
Pressure 29.82 in1009.8 mb 29.94 in1013.9 mb 29.82 in1009.8 mb -
Hour Temp Dew Point Humidity Winds Wind Gusts Pressure Precip Precip Rate Daily Precip Total
11:10 PM 67.6°F19.8°C 57.5°F14.2°C 70% Calm Calm -- 29.82 in1009.8 mb - 0.00 in0.0 mm 0.00 in0.0 mm
11:00 PM 67.2°F19.6°C 57.1°F13.9°C 70% Calm Calm -- 29.82 in1009.8 mb - 0.00 in0.0 mm 0.00 in0.0 mm
10:50 PM 66.7°F19.3°C 55.8°F13.2°C 68% Calm Calm -- 29.83 in1010.2 mb - 0.00 in0.0 mm 0.00 in0.0 mm
10:40 PM 66.4°F19.1°C 55.9°F13.3°C 69% Calm Calm -- 29.83 in1010.2 mb - 0.00 in0.0 mm 0.00 in0.0 mm
10:30 PM 66.4°F19.1°C 56.3°F13.5°C 70% Calm Calm -- 29.84 in1010.5 mb - 0.00 in0.0 mm 0.00 in0.0 mm
10:20 PM 66.3°F19.1°C 56.2°F13.4°C 70% Calm Calm -- 29.83 in1010.2 mb - 0.00 in0.0 mm 0.00 in0.0 mm
10:10 PM 66.1°F18.9°C 56.0°F13.3°C 70% Calm Calm -- 29.84 in1010.5 mb - 0.00 in0.0 mm 0.00 in0.0 mm
10:00 PM 66.1°F18.9°C 56.4°F13.6°C 71% Calm Calm -- 29.83 in1010.2 mb - 0.00 in0.0 mm 0.00 in0.0 mm
09:50 PM 66.2°F19.0°C 56.5°F13.6°C 71% Calm Calm -- 29.84 in1010.5 mb - 0.00 in0.0 mm 0.00 in0.0 mm
09:40 PM 66.4°F19.1°C 57.5°F14.2°C 73% Calm Calm -- 29.84 in1010.5 mb - 0.00 in0.0 mm 0.00 in0.0 mm
09:30 PM 66.7°F19.3°C 58.1°F14.5°C 74% Calm Calm -- 29.84 in1010.5 mb - 0.00 in0.0 mm 0.00 in0.0 mm
09:20 PM 67.9°F19.9°C 60.4°F15.8°C 77% Calm Calm -- 29.84 in1010.5 mb - 0.00 in0.0 mm 0.00 in0.0 mm
09:10 PM 68.1°F20.1°C 60.6°F15.9°C 77% Calm Calm -- 29.84 in1010.5 mb - 0.00 in0.0 mm 0.00 in0.0 mm
09:00 PM 68.5°F20.3°C 60.6°F15.9°C 76% Calm Calm -- 29.84 in1010.5 mb - 0.00 in0.0 mm 0.00 in0.0 mm
08:50 PM 68.8°F20.4°C 60.2°F15.7°C 74% 2.3 mph E3.7 kmh E 3.5 mph5.6 kmh 29.84 in1010.5 mb - 0.00 in0.0 mm 0.00 in0.0 mm
08:40 PM 69.1°F20.6°C 59.3°F15.2°C 71% 2.3 mph ESE3.7 kmh ESE 3.5 mph5.6 kmh 29.84 in1010.5 mb - 0.00 in0.0 mm 0.00 in0.0 mm
08:30 PM 69.1°F20.6°C 57.3°F14.1°C 66% 3.5 mph ESE5.6 kmh ESE 3.5 mph5.6 kmh 29.84 in1010.5 mb - 0.00 in0.0 mm 0.00 in0.0 mm
08:20 PM 69.4°F20.8°C 56.7°F13.7°C 64% 3.5 mph SE5.6 kmh SE 4.6 mph7.4 kmh 29.84 in1010.5 mb - 0.00 in0.0 mm 0.00 in0.0 mm
08:10 PM 69.7°F20.9°C 57.4°F14.1°C 65% 2.3 mph S3.7 kmh S 3.5 mph5.6 kmh 29.84 in1010.5 mb - 0.00 in0.0 mm 0.00 in0.0 mm
08:00 PM 69.6°F20.9°C 57.3°F14.1°C 65% Calm Calm -- 29.84 in1010.5 mb - 0.00 in0.0 mm 0.00 in0.0 mm
07:50 PM 69.4°F20.8°C 56.7°F13.7°C 64% Calm Calm -- 29.84 in1010.5 mb - 0.00 in0.0 mm 0.00 in0.0 mm
07:40 PM 69.2°F20.7°C 56.1°F13.4°C 63% Calm Calm -- 29.84 in1010.5 mb - 0.00 in0.0 mm 0.00 in0.0 mm
07:30 PM 69.3°F20.7°C 56.2°F13.4°C 63% Calm Calm -- 29.85 in1010.8 mb - 0.00 in0.0 mm 0.00 in0.0 mm
07:20 PM 69.4°F20.8°C 56.7°F13.7°C 64% Calm Calm -- 29.84 in1010.5 mb - 0.00 in0.0 mm 0.00 in0.0 mm
07:10 PM 69.7°F20.9°C 57.0°F13.9°C 64% Calm Calm -- 29.84 in1010.5 mb - 0.00 in0.0 mm 0.00 in0.0 mm
07:00 PM 70.0°F21.1°C 57.3°F14.1°C 64% Calm Calm -- 29.84 in1010.5 mb - 0.00 in0.0 mm 0.00 in0.0 mm
06:50 PM 70.6°F21.4°C 57.0°F13.9°C 62% Calm Calm -- 29.84 in1010.5 mb - 0.00 in0.0 mm 0.00 in0.0 mm
06:40 PM 71.0°F21.7°C 56.9°F13.8°C 61% Calm Calm -- 29.84 in1010.5 mb - 0.00 in0.0 mm 0.00 in0.0 mm
06:30 PM 71.0°F21.7°C 56.4°F13.6°C 60% Calm Calm -- 29.84 in1010.5 mb - 0.00 in0.0 mm 0.00 in0.0 mm
06:20 PM 71.0°F21.7°C 56.4°F13.6°C 60% 1.2 mph SW1.9 kmh SW 3.5 mph5.6 kmh 29.84 in1010.5 mb - 0.00 in0.0 mm 0.00 in0.0 mm
06:10 PM 71.0°F21.7°C 57.8°F14.3°C 63% 2.3 mph SW3.7 kmh SW 3.5 mph5.6 kmh 29.84 in1010.5 mb - 0.00 in0.0 mm 0.00 in0.0 mm
06:00 PM 71.2°F21.8°C 58.4°F14.7°C 64% 3.5 mph SW5.6 kmh SW 3.5 mph5.6 kmh 29.84 in1010.5 mb - 0.00 in0.0 mm 0.00 in0.0 mm
05:50 PM 71.5°F21.9°C 58.2°F14.6°C 63% 3.5 mph SW5.6 kmh SW 5.8 mph9.3 kmh 29.84 in1010.5 mb - 0.00 in0.0 mm 0.00 in0.0 mm
05:40 PM 71.4°F21.9°C 57.7°F14.3°C 62% 4.6 mph SW7.4 kmh SW 5.8 mph9.3 kmh 29.84 in1010.5 mb - 0.00 in0.0 mm 0.00 in0.0 mm
05:30 PM 71.5°F21.9°C 60.0°F15.6°C 67% 4.6 mph SW7.4 kmh SW 6.9 mph11.1 kmh 29.84 in1010.5 mb - 0.00 in0.0 mm 0.00 in0.0 mm
05:20 PM 71.4°F21.9°C 62.3°F16.8°C 73% 4.6 mph W7.4 kmh W 8.1 mph13.0 kmh 29.84 in1010.5 mb - 0.00 in0.0 mm 0.00 in0.0 mm
05:10 PM 71.8°F22.1°C 62.7°F17.1°C 73% 5.8 mph SW9.3 kmh SW 8.1 mph13.0 kmh 29.85 in1010.8 mb - 0.00 in0.0 mm 0.00 in0.0 mm
05:00 PM 72.2°F22.3°C 62.2°F16.8°C 71% 2.3 mph SW3.7 kmh SW 3.5 mph5.6 kmh 29.85 in1010.8 mb - 0.00 in0.0 mm 0.00 in0.0 mm
04:50 PM 72.0°F22.2°C 61.7°F16.5°C 70% 5.8 mph S9.3 kmh S 6.9 mph11.1 kmh 29.85 in1010.8 mb - 0.00 in0.0 mm 0.00 in0.0 mm
04:40 PM 72.2°F22.3°C 61.9°F16.6°C 70% 4.6 mph SW7.4 kmh SW 6.9 mph11.1 kmh 29.84 in1010.5 mb - 0.00 in0.0 mm 0.00 in0.0 mm
04:30 PM 72.2°F22.3°C 61.0°F16.1°C 68% 5.8 mph SSW9.3 kmh SSW 8.1 mph13.0 kmh 29.84 in1010.5 mb - 0.00 in0.0 mm 0.00 in0.0 mm
04:20 PM 72.2°F22.3°C 60.2°F15.7°C 66% 6.9 mph SW11.1 kmh SW 6.9 mph11.1 kmh 29.85 in1010.8 mb - 0.00 in0.0 mm 0.00 in0.0 mm
04:10 PM 72.2°F22.3°C 61.0°F16.1°C 68% 4.6 mph SW7.4 kmh SW 4.6 mph7.4 kmh 29.85 in1010.8 mb - 0.00 in0.0 mm 0.00 in0.0 mm
04:00 PM 72.0°F22.2°C 61.3°F16.3°C 69% 4.6 mph SSW7.4 kmh SSW 9.2 mph14.8 kmh 29.86 in1011.2 mb - 0.00 in0.0 mm 0.00 in0.0 mm
03:50 PM 71.7°F22.1°C 61.4°F16.3°C 70% 3.5 mph S5.6 kmh S 5.8 mph9.3 kmh 29.85 in1010.8 mb - 0.00 in0.0 mm 0.00 in0.0 mm
03:40 PM 71.4°F21.9°C 62.3°F16.8°C 73% 5.8 mph SW9.3 kmh SW 8.1 mph13.0 kmh 29.85 in1010.8 mb - 0.00 in0.0 mm 0.00 in0.0 mm
03:30 PM 72.0°F22.2°C 62.9°F17.2°C 73% 5.8 mph SW9.3 kmh SW 10.4 mph16.7 kmh 29.85 in1010.8 mb - 0.00 in0.0 mm 0.00 in0.0 mm
03:20 PM 71.9°F22.2°C 62.8°F17.1°C 73% 5.8 mph SSW9.3 kmh SSW 6.9 mph11.1 kmh 29.85 in1010.8 mb - 0.00 in0.0 mm 0.00 in0.0 mm
03:10 PM 72.8°F22.7°C 61.7°F16.5°C 68% 5.8 mph SW9.3 kmh SW 10.4 mph16.7 kmh 29.85 in1010.8 mb - 0.00 in0.0 mm 0.00 in0.0 mm
03:00 PM 72.4°F22.4°C 61.2°F16.2°C 68% 2.3 mph SW3.7 kmh SW 3.5 mph5.6 kmh 29.85 in1010.8 mb - 0.00 in0.0 mm 0.00 in0.0 mm
02:50 PM 73.0°F22.8°C 61.4°F16.3°C 67% 5.8 mph SW9.3 kmh SW 9.2 mph14.8 kmh 29.85 in1010.8 mb - 0.00 in0.0 mm 0.00 in0.0 mm
02:40 PM 73.0°F22.8°C 60.1°F15.6°C 64% 4.6 mph SSW7.4 kmh SSW 6.9 mph11.1 kmh 29.85 in1010.8 mb - 0.00 in0.0 mm 0.00 in0.0 mm
02:30 PM 72.2°F22.3°C 59.8°F15.4°C 65% 5.8 mph SW9.3 kmh SW 6.9 mph11.1 kmh 29.86 in1011.2 mb - 0.00 in0.0 mm 0.00 in0.0 mm
02:20 PM 72.4°F22.4°C 59.1°F15.1°C 63% 4.6 mph SW7.4 kmh SW 6.9 mph11.1 kmh 29.86 in1011.2 mb - 0.00 in0.0 mm 0.00 in0.0 mm
02:10 PM 72.1°F22.3°C 58.8°F14.9°C 63% 6.9 mph S11.1 kmh S 9.2 mph14.8 kmh 29.87 in1011.5 mb - 0.00 in0.0 mm 0.00 in0.0 mm
02:00 PM 72.3°F22.4°C 57.7°F14.3°C 60% 6.9 mph SSW11.1 kmh SSW 10.4 mph16.7 kmh 29.87 in1011.5 mb - 0.00 in0.0 mm 0.00 in0.0 mm
01:50 PM 72.8°F22.7°C 56.7°F13.7°C 57% 6.9 mph SSW11.1 kmh SSW 8.1 mph13.0 kmh 29.87 in1011.5 mb - 0.00 in0.0 mm 0.00 in0.0 mm
01:40 PM 73.6°F23.1°C 56.9°F13.8°C 56% 6.9 mph SW11.1 kmh SW 8.1 mph13.0 kmh 29.87 in1011.5 mb - 0.00 in0.0 mm 0.00 in0.0 mm
01:30 PM 72.6°F22.6°C 56.5°F13.6°C 57% 5.8 mph SSW9.3 kmh SSW 5.8 mph9.3 kmh 29.88 in1011.9 mb - 0.00 in0.0 mm 0.00 in0.0 mm
01:20 PM 71.2°F21.8°C 56.6°F13.7°C 60% 4.6 mph SW7.4 kmh SW 8.1 mph13.0 kmh 29.88 in1011.9 mb - 0.00 in0.0 mm 0.00 in0.0 mm
01:10 PM 71.7°F22.1°C 57.1°F13.9°C 60% 5.8 mph SSW9.3 kmh SSW 10.4 mph16.7 kmh 29.89 in1012.2 mb - 0.00 in0.0 mm 0.00 in0.0 mm
01:00 PM 72.4°F22.4°C 56.3°F13.5°C 57% 8.1 mph SSW13.0 kmh SSW 10.4 mph16.7 kmh 29.89 in1012.2 mb - 0.00 in0.0 mm 0.00 in0.0 mm
12:50 PM 72.4°F22.4°C 55.3°F12.9°C 55% 4.6 mph S7.4 kmh S 5.8 mph9.3 kmh 29.89 in1012.2 mb - 0.00 in0.0 mm 0.00 in0.0 mm
12:40 PM 71.7°F22.1°C 55.2°F12.9°C 56% 4.6 mph SSW7.4 kmh SSW 5.8 mph9.3 kmh 29.89 in1012.2 mb - 0.00 in0.0 mm 0.00 in0.0 mm
12:30 PM 71.2°F21.8°C 55.7°F13.2°C 58% 6.9 mph SSW11.1 kmh SSW 8.1 mph13.0 kmh 29.90 in1012.5 mb - 0.00 in0.0 mm 0.00 in0.0 mm
12:20 PM 72.0°F22.2°C 55.4°F13.0°C 56% 3.5 mph S5.6 kmh S 9.2 mph14.8 kmh 29.90 in1012.5 mb - 0.00 in0.0 mm 0.00 in0.0 mm
12:10 PM 72.5°F22.5°C 55.4°F13.0°C 55% 2.3 mph SW3.7 kmh SW 4.6 mph7.4 kmh 29.90 in1012.5 mb - 0.00 in0.0 mm 0.00 in0.0 mm
12:00 PM 72.7°F22.6°C 55.1°F12.8°C 54% 4.6 mph SSW7.4 kmh SSW 6.9 mph11.1 kmh 29.91 in1012.9 mb - 0.00 in0.0 mm 0.00 in0.0 mm
11:50 AM 72.3°F22.4°C 55.2°F12.9°C 55% 3.5 mph SE5.6 kmh SE 4.6 mph7.4 kmh 29.91 in1012.9 mb - 0.00 in0.0 mm 0.00 in0.0 mm
11:40 AM 72.2°F22.3°C 55.6°F13.1°C 56% 2.3 mph S3.7 kmh S 3.5 mph5.6 kmh 29.91 in1012.9 mb - 0.00 in0.0 mm 0.00 in0.0 mm
11:30 AM 72.4°F22.4°C 55.8°F13.2°C 56% 2.3 mph SW3.7 kmh SW 4.6 mph7.4 kmh 29.91 in1012.9 mb - 0.00 in0.0 mm 0.00 in0.0 mm
11:20 AM 71.7°F22.1°C 55.7°F13.2°C 57% Calm Calm -- 29.91 in1012.9 mb - 0.00 in0.0 mm 0.00 in0.0 mm
11:10 AM 71.3°F21.8°C 55.3°F12.9°C 57% 1.2 mph SW1.9 kmh SW 3.5 mph5.6 kmh 29.91 in1012.9 mb - 0.00 in0.0 mm 0.00 in0.0 mm
11:00 AM 70.6°F21.4°C 54.1°F12.3°C 56% 2.3 mph S3.7 kmh S 2.3 mph3.7 kmh 29.91 in1012.9 mb - 0.00 in0.0 mm 0.00 in0.0 mm
10:50 AM 70.1°F21.2°C 55.1°F12.8°C 59% Calm Calm -- 29.91 in1012.9 mb - 0.00 in0.0 mm 0.00 in0.0 mm
10:40 AM 70.0°F21.1°C 54.6°F12.6°C 58% 3.5 mph S5.6 kmh S 4.6 mph7.4 kmh 29.92 in1013.2 mb - 0.00 in0.0 mm 0.00 in0.0 mm
10:30 AM 70.2°F21.2°C 54.2°F12.3°C 57% Calm Calm -- 29.92 in1013.2 mb - 0.00 in0.0 mm 0.00 in0.0 mm
10:20 AM 70.2°F21.2°C 53.8°F12.1°C 56% 3.5 mph S5.6 kmh S 4.6 mph7.4 kmh 29.91 in1012.9 mb - 0.00 in0.0 mm 0.00 in0.0 mm
10:10 AM 70.7°F21.5°C 55.2°F12.9°C 58% 2.3 mph SW3.7 kmh SW 3.5 mph5.6 kmh 29.92 in1013.2 mb - 0.00 in0.0 mm 0.00 in0.0 mm
10:00 AM 70.8°F21.6°C 55.3°F12.9°C 58% Calm Calm -- 29.92 in1013.2 mb - 0.00 in0.0 mm 0.00 in0.0 mm
09:50 AM 70.7°F21.5°C 55.7°F13.2°C 59% Calm Calm -- 29.92 in1013.2 mb - 0.00 in0.0 mm 0.00 in0.0 mm
09:40 AM 70.1°F21.2°C 55.1°F12.8°C 59% 1.2 mph NE1.9 kmh NE 2.3 mph3.7 kmh 29.92 in1013.2 mb - 0.00 in0.0 mm 0.00 in0.0 mm
09:30 AM 69.7°F20.9°C 54.7°F12.6°C 59% 2.3 mph NE3.7 kmh NE 3.5 mph5.6 kmh 29.91 in1012.9 mb - 0.00 in0.0 mm 0.00 in0.0 mm
09:20 AM 69.0°F20.6°C 54.1°F12.3°C 59% 3.5 mph ESE5.6 kmh ESE 5.8 mph9.3 kmh 29.91 in1012.9 mb - 0.00 in0.0 mm 0.00 in0.0 mm
09:10 AM 67.5°F19.7°C 53.6°F12.0°C 61% Calm Calm -- 29.91 in1012.9 mb - 0.00 in0.0 mm 0.00 in0.0 mm
09:00 AM 66.9°F19.4°C 53.5°F11.9°C 62% Calm Calm -- 29.92 in1013.2 mb - 0.00 in0.0 mm 0.00 in0.0 mm
08:50 AM 66.1°F18.9°C 53.5°F11.9°C 64% 3.5 mph S5.6 kmh S 3.5 mph5.6 kmh 29.92 in1013.2 mb - 0.00 in0.0 mm 0.00 in0.0 mm
08:40 AM 64.9°F18.3°C 53.3°F11.8°C 66% Calm Calm -- 29.91 in1012.9 mb - 0.00 in0.0 mm 0.00 in0.0 mm
08:30 AM 64.1°F17.8°C 52.9°F11.6°C 67% 6.9 mph NE11.1 kmh NE 9.2 mph14.8 kmh 29.91 in1012.9 mb - 0.00 in0.0 mm 0.00 in0.0 mm
08:20 AM 63.9°F17.7°C 52.7°F11.5°C 67% 1.2 mph N1.9 kmh N 3.5 mph5.6 kmh 29.91 in1012.9 mb - 0.00 in0.0 mm 0.00 in0.0 mm
08:10 AM 63.6°F17.6°C 52.4°F11.3°C 67% 1.2 mph N1.9 kmh N 2.3 mph3.7 kmh 29.91 in1012.9 mb - 0.00 in0.0 mm 0.00 in0.0 mm
08:00 AM 63.3°F17.4°C 52.1°F11.2°C 67% 2.3 mph NNE3.7 kmh NNE 3.5 mph5.6 kmh 29.91 in1012.9 mb - 0.00 in0.0 mm 0.00 in0.0 mm
07:50 AM 63.2°F17.3°C 52.1°F11.2°C 67% Calm Calm -- 29.91 in1012.9 mb - 0.00 in0.0 mm 0.00 in0.0 mm
07:40 AM 63.1°F17.3°C 52.0°F11.1°C 67% Calm Calm -- 29.90 in1012.5 mb - 0.00 in0.0 mm 0.00 in0.0 mm
07:30 AM 63.0°F17.2°C 51.9°F11.1°C 67% Calm Calm -- 29.90 in1012.5 mb - 0.00 in0.0 mm 0.00 in0.0 mm
07:20 AM 62.9°F17.2°C 51.8°F11.0°C 67% Calm Calm -- 29.90 in1012.5 mb - 0.00 in0.0 mm 0.00 in0.0 mm
07:10 AM 63.0°F17.2°C 51.9°F11.1°C 67% Calm Calm -- 29.90 in1012.5 mb - 0.00 in0.0 mm 0.00 in0.0 mm
07:00 AM 63.2°F17.3°C 51.6°F10.9°C 66% Calm Calm -- 29.90 in1012.5 mb - 0.00 in0.0 mm 0.00 in0.0 mm
06:50 AM 63.4°F17.4°C 51.8°F11.0°C 66% Calm Calm -- 29.90 in1012.5 mb - 0.00 in0.0 mm 0.00 in0.0 mm
06:40 AM 63.5°F17.5°C 51.9°F11.1°C 66% Calm Calm -- 29.90 in1012.5 mb - 0.00 in0.0 mm 0.00 in0.0 mm
06:30 AM 63.7°F17.6°C 51.7°F10.9°C 65% 1.2 mph NNE1.9 kmh NNE 3.5 mph5.6 kmh 29.90 in1012.5 mb - 0.00 in0.0 mm 0.00 in0.0 mm
06:20 AM 63.9°F17.7°C 51.9°F11.1°C 65% 2.3 mph NE3.7 kmh NE 3.5 mph5.6 kmh 29.90 in1012.5 mb - 0.00 in0.0 mm 0.00 in0.0 mm
06:10 AM 63.8°F17.7°C 51.8°F11.0°C 65% 2.3 mph NE3.7 kmh NE 3.5 mph5.6 kmh 29.90 in1012.5 mb - 0.00 in0.0 mm 0.00 in0.0 mm
06:00 AM 63.6°F17.6°C 51.6°F10.9°C 65% 2.3 mph NE3.7 kmh NE 3.5 mph5.6 kmh 29.89 in1012.2 mb - 0.00 in0.0 mm 0.00 in0.0 mm
05:50 AM 63.7°F17.6°C 51.7°F10.9°C 65% 2.3 mph NE3.7 kmh NE 3.5 mph5.6 kmh 29.90 in1012.5 mb - 0.00 in0.0 mm 0.00 in0.0 mm
05:40 AM 63.8°F17.7°C 51.8°F11.0°C 65% 3.5 mph NE5.6 kmh NE 4.6 mph7.4 kmh 29.90 in1012.5 mb - 0.00 in0.0 mm 0.00 in0.0 mm
05:30 AM 63.6°F17.6°C 52.0°F11.1°C 66% 2.3 mph NE3.7 kmh NE 4.6 mph7.4 kmh 29.90 in1012.5 mb - 0.00 in0.0 mm 0.00 in0.0 mm
05:20 AM 63.0°F17.2°C 51.9°F11.1°C 67% 2.3 mph ENE3.7 kmh ENE 3.5 mph5.6 kmh 29.90 in1012.5 mb - 0.00 in0.0 mm 0.00 in0.0 mm
05:10 AM 62.6°F17.0°C 51.9°F11.1°C 68% 3.5 mph NE5.6 kmh NE 3.5 mph5.6 kmh 29.90 in1012.5 mb - 0.00 in0.0 mm 0.00 in0.0 mm
05:00 AM 62.7°F17.1°C 51.6°F10.9°C 67% 1.2 mph N1.9 kmh N 3.5 mph5.6 kmh 29.90 in1012.5 mb - 0.00 in0.0 mm 0.00 in0.0 mm
04:50 AM 62.9°F17.2°C 51.8°F11.0°C 67% 3.5 mph NE5.6 kmh NE 4.6 mph7.4 kmh 29.90 in1012.5 mb - 0.00 in0.0 mm 0.00 in0.0 mm
04:40 AM 63.0°F17.2°C 51.9°F11.1°C 67% Calm Calm -- 29.90 in1012.5 mb - 0.00 in0.0 mm 0.00 in0.0 mm
04:30 AM 63.3°F17.4°C 51.7°F10.9°C 66% Calm Calm -- 29.90 in1012.5 mb - 0.00 in0.0 mm 0.00 in0.0 mm
04:20 AM 63.8°F17.7°C 51.8°F11.0°C 65% Calm Calm -- 29.90 in1012.5 mb - 0.00 in0.0 mm 0.00 in0.0 mm
04:10 AM 64.0°F17.8°C 52.0°F11.1°C 65% Calm Calm -- 29.90 in1012.5 mb - 0.00 in0.0 mm 0.00 in0.0 mm
04:00 AM 64.0°F17.8°C 52.0°F11.1°C 65% Calm Calm -- 29.90 in1012.5 mb - 0.00 in0.0 mm 0.00 in0.0 mm
03:50 AM 64.0°F17.8°C 52.0°F11.1°C 65% Calm Calm -- 29.90 in1012.5 mb - 0.00 in0.0 mm 0.00 in0.0 mm
03:40 AM 63.9°F17.7°C 51.9°F11.1°C 65% Calm Calm -- 29.90 in1012.5 mb - 0.00 in0.0 mm 0.00 in0.0 mm
03:30 AM 63.9°F17.7°C 51.5°F10.8°C 64% 2.3 mph NNE3.7 kmh NNE 3.5 mph5.6 kmh 29.90 in1012.5 mb - 0.00 in0.0 mm 0.00 in0.0 mm
03:20 AM 64.0°F17.8°C 51.1°F10.6°C 63% 2.3 mph NNE3.7 kmh NNE 3.5 mph5.6 kmh 29.90 in1012.5 mb - 0.00 in0.0 mm 0.00 in0.0 mm
03:10 AM 64.5°F18.1°C 51.2°F10.7°C 62% Calm Calm -- 29.91 in1012.9 mb - 0.00 in0.0 mm 0.00 in0.0 mm
03:00 AM 64.9°F18.3°C 51.6°F10.9°C 62% Calm Calm -- 29.91 in1012.9 mb - 0.00 in0.0 mm 0.00 in0.0 mm
02:50 AM 65.0°F18.3°C 51.7°F10.9°C 62% Calm Calm -- 29.91 in1012.9 mb - 0.00 in0.0 mm 0.00 in0.0 mm
02:40 AM 65.0°F18.3°C 51.7°F10.9°C 62% Calm Calm -- 29.91 in1012.9 mb - 0.00 in0.0 mm 0.00 in0.0 mm
02:30 AM 64.8°F18.2°C 51.0°F10.6°C 61% 1.2 mph NNE1.9 kmh NNE 3.5 mph5.6 kmh 29.91 in1012.9 mb - 0.00 in0.0 mm 0.00 in0.0 mm
02:20 AM 65.0°F18.3°C 50.8°F10.4°C 60% 1.2 mph N1.9 kmh N 2.3 mph3.7 kmh 29.91 in1012.9 mb - 0.00 in0.0 mm 0.00 in0.0 mm
02:10 AM 65.2°F18.4°C 51.0°F10.6°C 60% Calm Calm -- 29.92 in1013.2 mb - 0.00 in0.0 mm 0.00 in0.0 mm
02:00 AM 65.2°F18.4°C 51.0°F10.6°C 60% Calm Calm -- 29.91 in1012.9 mb - 0.00 in0.0 mm 0.00 in0.0 mm
01:50 AM 65.1°F18.4°C 50.8°F10.4°C 60% Calm Calm -- 29.92 in1013.2 mb - 0.00 in0.0 mm 0.00 in0.0 mm
01:40 AM 64.9°F18.3°C 50.7°F10.4°C 60% Calm Calm -- 29.92 in1013.2 mb - 0.00 in0.0 mm 0.00 in0.0 mm
01:30 AM 64.9°F18.3°C 51.1°F10.6°C 61% Calm Calm -- 29.93 in1013.5 mb - 0.00 in0.0 mm 0.00 in0.0 mm
01:20 AM 64.6°F18.1°C 50.8°F10.4°C 61% Calm Calm -- 29.93 in1013.5 mb - 0.00 in0.0 mm 0.00 in0.0 mm
01:10 AM 64.5°F18.1°C 51.2°F10.7°C 62% Calm Calm -- 29.93 in1013.5 mb - 0.00 in0.0 mm 0.00 in0.0 mm
01:00 AM 64.3°F17.9°C 51.0°F10.6°C 62% 1.2 mph N1.9 kmh N 2.3 mph3.7 kmh 29.93 in1013.5 mb - 0.00 in0.0 mm 0.00 in0.0 mm
12:50 AM 63.8°F17.7°C 51.0°F10.6°C 63% 2.3 mph N3.7 kmh N 3.5 mph5.6 kmh 29.93 in1013.5 mb - 0.00 in0.0 mm 0.00 in0.0 mm
12:40 AM 63.8°F17.7°C 51.0°F10.6°C 63% Calm Calm -- 29.93 in1013.5 mb - 0.00 in0.0 mm 0.00 in0.0 mm
12:30 AM 64.0°F17.8°C 51.1°F10.6°C 63% Calm Calm -- 29.93 in1013.5 mb - 0.00 in0.0 mm 0.00 in0.0 mm
12:20 AM 64.2°F17.9°C 50.9°F10.5°C 62% 1.2 mph N1.9 kmh N 2.3 mph3.7 kmh 29.93 in1013.5 mb - 0.00 in0.0 mm 0.00 in0.0 mm
12:10 AM 64.9°F18.3°C 51.1°F10.6°C 61% 2.3 mph N3.7 kmh N 2.3 mph3.7 kmh 29.94 in1013.9 mb - 0.00 in0.0 mm 0.00 in0.0 mm
12:00 AM 65.9°F18.8°C 51.2°F10.7°C 59% 3.5 mph NNW5.6 kmh NNW 4.6 mph7.4 kmh 29.94 in1013.9 mb - 0.00 in0.0 mm 0.00 in0.0 mm